Time;durP1;ratioP1;P1;durP2;ratioP2;P2;SDS_P1;SDS_P2;PMS_P1;PMS_P2;Temp;Humidity;BMP_temperature;BMP_pressure;BME280_temperature;BME280_humidity;BME280_pressure;Samples;Min_cycle;Max_cycle;Signal;HPM_P1;HPM_P2
2023/04/07 00:01:32;;;;;;;55.97;32.67;;;6.60;99.90;;;;;;4880078;29;21358;-70
2023/04/07 00:03:57;;;;;;;49.53;31.13;;;6.60;99.90;;;;;;4880465;29;21005;-70
2023/04/07 00:06:23;;;;;;;56.77;32.97;;;6.60;99.90;;;;;;4865215;29;20048;-70
2023/04/07 00:08:49;;;;;;;57.60;32.20;;;6.60;99.90;;;;;;4865133;29;20067;-70
2023/04/07 00:11:14;;;;;;;51.83;31.20;;;6.60;99.90;;;;;;4879751;29;20116;-70
2023/04/07 00:13:40;;;;;;;51.77;31.53;;;6.60;99.90;;;;;;4879736;29;20052;-70
2023/04/07 00:16:06;;;;;;;56.53;31.87;;;6.60;99.90;;;;;;4864888;29;20060;-70
2023/04/07 00:18:32;;;;;;;51.83;31.67;;;6.60;99.90;;;;;;4880773;29;20056;-70
2023/04/07 00:20:58;;;;;;;51.20;31.17;;;6.70;99.90;;;;;;4878083;29;20072;-70
2023/04/07 00:23:23;;;;;;;56.50;34.03;;;6.70;99.90;;;;;;4878447;29;20119;-70
2023/04/07 00:25:49;;;;;;;62.80;34.87;;;6.70;99.90;;;;;;4879049;29;20076;-70
2023/04/07 00:28:15;;;;;;;56.13;32.83;;;6.70;99.90;;;;;;4880548;29;20087;-70
2023/04/07 00:30:40;;;;;;;55.37;32.17;;;6.70;99.90;;;;;;4879993;29;20076;-70
2023/04/07 00:33:06;;;;;;;53.87;31.37;;;6.70;99.90;;;;;;4879134;29;20124;-70
2023/04/07 00:35:32;;;;;;;54.57;32.47;;;6.70;99.90;;;;;;4875015;29;20049;-70
2023/04/07 00:37:58;;;;;;;58.93;33.20;;;6.70;99.90;;;;;;4859262;29;20072;-70
2023/04/07 00:40:24;;;;;;;59.77;33.20;;;6.70;99.90;;;;;;4874876;29;20045;-70
2023/04/07 00:42:49;;;;;;;50.15;30.67;;;6.70;99.90;;;;;;4874316;29;20745;-70
2023/04/07 00:45:15;;;;;;;60.07;33.27;;;6.70;99.90;;;;;;4879663;29;20080;-70
2023/04/07 00:47:41;;;;;;;53.27;32.03;;;6.70;99.90;;;;;;4879481;29;20048;-70
2023/04/07 00:50:07;;;;;;;57.80;32.90;;;6.70;99.90;;;;;;4879443;29;20041;-70
2023/04/07 00:52:33;;;;;;;63.25;33.38;;;6.70;99.90;;;;;;4878929;29;20052;-70
2023/04/07 00:54:59;;;;;;;58.73;32.77;;;6.80;99.90;;;;;;4879060;29;20556;-70
2023/04/07 00:57:25;;;;;;;67.60;35.35;;;6.80;99.90;;;;;;4857922;29;20120;-70
2023/04/07 00:59:52;;;;;;;65.87;34.80;;;6.80;99.90;;;;;;4879438;29;20462;-70
2023/04/07 01:02:50;;;;;;;55.30;32.72;;;6.80;99.90;;;;;;4863193;29;20076;-70
2023/04/07 01:05:24;;;;;;;55.78;32.25;;;6.80;99.90;;;;;;4850848;29;20124;-70
2023/04/07 01:08:09;;;;;;;57.95;33.10;;;6.80;99.90;;;;;;4876736;29;20044;-71
2023/04/07 01:10:52;;;;;;;61.22;34.13;;;6.80;99.90;;;;;;4871140;29;20036;-71
2023/04/07 01:13:29;;;;;;;59.45;33.13;;;6.80;99.90;;;;;;4863184;29;20043;-71
2023/04/07 01:15:58;;;;;;;67.32;34.03;;;6.90;99.90;;;;;;4867610;29;20076;-71
2023/04/07 01:18:32;;;;;;;67.45;34.95;;;6.80;99.90;;;;;;4878143;29;20056;-71
2023/04/07 01:21:13;;;;;;;60.25;32.97;;;6.90;99.90;;;;;;4878694;29;20044;-71
2023/04/07 01:23:38;;;;;;;57.00;32.20;;;6.90;99.90;;;;;;4863138;29;20037;-71
2023/04/07 01:26:19;;;;;;;61.60;32.67;;;6.90;99.90;;;;;;4873975;29;20143;-71
2023/04/07 01:29:00;;;;;;;57.83;31.55;;;6.90;99.90;;;;;;4873248;29;20064;-70
2023/04/07 01:31:26;;;;;;;66.93;33.13;;;6.90;99.90;;;;;;4873121;29;20139;-70
2023/04/07 01:33:54;;;;;;;56.40;31.65;;;6.90;99.90;;;;;;4878598;29;20072;-70
2023/04/07 01:36:21;;;;;;;52.05;31.13;;;6.90;99.90;;;;;;4878373;29;20108;-70
2023/04/07 01:38:49;;;;;;;51.20;29.38;;;6.90;99.90;;;;;;4878799;29;20037;-71
2023/04/07 01:41:16;;;;;;;48.03;26.70;;;7.00;99.90;;;;;;4868521;29;20049;-71
2023/04/07 01:43:43;;;;;;;49.83;27.13;;;7.00;99.90;;;;;;4863101;29;20040;-71
2023/04/07 01:46:08;;;;;;;48.72;27.30;;;7.00;99.90;;;;;;4876002;29;20474;-71
2023/04/07 01:48:35;;;;;;;38.57;23.00;;;7.00;99.90;;;;;;4873858;29;20048;-71
2023/04/07 01:51:03;;;;;;;32.28;17.05;;;7.10;99.90;;;;;;4863152;29;20044;-70
2023/04/07 01:53:30;;;;;;;21.42;10.65;;;7.10;99.90;;;;;;4878476;29;20047;-71
2023/04/07 01:55:55;;;;;;;14.43;8.73;;;7.10;99.90;;;;;;4861528;29;20064;-71
2023/04/07 01:58:21;;;;;;;19.77;8.97;;;7.20;99.90;;;;;;4863256;29;20041;-71
2023/04/07 02:00:49;;;;;;;18.27;8.23;;;7.20;99.90;;;;;;4862622;29;20048;-71
2023/04/07 02:03:21;;;;;;;16.75;8.13;;;7.30;99.90;;;;;;4851736;29;20044;-71
2023/04/07 02:05:56;;;;;;;19.60;9.55;;;7.30;99.90;;;;;;4877729;29;20049;-70
2023/04/07 02:08:26;;;;;;;12.98;7.93;;;7.30;99.90;;;;;;4878399;29;20127;-71
2023/04/07 02:10:54;;;;;;;28.73;9.80;;;7.30;99.90;;;;;;4869877;29;20714;-71
2023/04/07 02:13:20;;;;;;;23.90;9.95;;;7.30;99.90;;;;;;4868902;29;20085;-71
2023/04/07 02:15:47;;;;;;;25.05;10.15;;;7.40;99.90;;;;;;4877520;29;20051;-71
2023/04/07 02:18:15;;;;;;;30.17;10.07;;;7.30;99.90;;;;;;4870707;29;20040;-71
2023/04/07 02:20:43;;;;;;;33.58;9.82;;;7.40;99.90;;;;;;4878404;29;20049;-71
2023/04/07 02:23:09;;;;;;;29.23;10.32;;;7.30;99.90;;;;;;4878289;29;20128;-71
2023/04/07 02:25:37;;;;;;;26.43;10.40;;;7.30;99.90;;;;;;4876350;29;20156;-71
2023/04/07 02:28:03;;;;;;;23.33;9.45;;;7.30;99.90;;;;;;4876139;29;20080;-71
2023/04/07 02:30:30;;;;;;;24.38;10.05;;;7.30;99.90;;;;;;4867980;29;20108;-70
2023/04/07 02:32:56;;;;;;;30.58;10.38;;;7.30;99.90;;;;;;4878436;29;20060;-70
2023/04/07 02:35:22;;;;;;;23.97;9.50;;;7.30;99.90;;;;;;4862205;29;20044;-70
2023/04/07 02:37:48;;;;;;;27.40;10.00;;;7.30;99.90;;;;;;4868720;29;20040;-70
2023/04/07 02:40:14;;;;;;;24.13;10.40;;;7.30;99.90;;;;;;4868078;29;20048;-70
2023/04/07 02:42:40;;;;;;;37.20;11.52;;;7.40;99.90;;;;;;4890595;29;20041;-70
2023/04/07 02:45:07;;;;;;;27.87;11.03;;;7.40;99.90;;;;;;4877629;29;20056;-70
2023/04/07 02:47:35;;;;;;;24.48;10.48;;;7.40;99.90;;;;;;4873626;29;20052;-70
2023/04/07 02:50:01;;;;;;;25.52;10.00;;;7.40;99.90;;;;;;4858892;29;20048;-70
2023/04/07 02:52:27;;;;;;;18.58;9.75;;;7.40;99.90;;;;;;4877734;29;20044;-71
2023/04/07 02:54:52;;;;;;;25.40;10.23;;;7.40;99.90;;;;;;4864572;29;20615;-70
2023/04/07 02:57:18;;;;;;;24.00;9.73;;;7.40;99.90;;;;;;4871942;29;20037;-70
2023/04/07 02:59:44;;;;;;;22.70;9.57;;;7.40;99.90;;;;;;4862136;29;20188;-70
2023/04/07 03:02:10;;;;;;;27.07;10.77;;;7.40;99.90;;;;;;4877777;29;20063;-70
2023/04/07 03:04:36;;;;;;;28.17;10.27;;;7.40;99.90;;;;;;4877550;29;20045;-70
2023/04/07 03:07:02;;;;;;;18.77;8.67;;;7.40;99.90;;;;;;4877302;29;20063;-70
2023/04/07 03:09:27;;;;;;;23.03;9.60;;;7.40;99.90;;;;;;4872411;29;20421;-70
2023/04/07 03:11:53;;;;;;;21.73;9.77;;;7.40;99.90;;;;;;4880480;29;20055;-70
2023/04/07 03:14:19;;;;;;;19.03;9.47;;;7.40;99.90;;;;;;4877313;29;20059;-70
2023/04/07 03:16:45;;;;;;;28.60;10.77;;;7.40;99.90;;;;;;4877349;29;20767;-70
2023/04/07 03:19:11;;;;;;;29.93;10.53;;;7.40;99.90;;;;;;4877543;29;20063;-70
2023/04/07 03:21:37;;;;;;;20.60;10.57;;;7.40;99.90;;;;;;4877865;29;20041;-70
2023/04/07 03:24:06;;;;;;;25.50;10.80;;;7.40;99.90;;;;;;4878902;29;20045;-70
2023/04/07 03:26:32;;;;;;;26.70;10.15;;;7.40;99.90;;;;;;4866044;29;20487;-70
2023/04/07 03:28:58;;;;;;;26.73;10.77;;;7.40;99.90;;;;;;4880135;29;20079;-70
2023/04/07 03:31:24;;;;;;;23.50;10.27;;;7.40;99.90;;;;;;4881619;29;20494;-70
2023/04/07 03:33:50;;;;;;;30.13;10.77;;;7.40;99.90;;;;;;4865698;29;20051;-70
2023/04/07 03:36:17;;;;;;;30.63;11.90;;;7.40;99.90;;;;;;4865790;29;20520;-70
2023/04/07 03:38:44;;;;;;;28.98;10.95;;;7.40;99.90;;;;;;4879936;29;20180;-70
2023/04/07 03:41:09;;;;;;;26.83;11.38;;;7.40;99.90;;;;;;4881256;29;20462;-70
2023/04/07 03:43:35;;;;;;;24.43;10.13;;;7.40;99.90;;;;;;4865493;29;20109;-70
2023/04/07 03:46:01;;;;;;;29.30;10.90;;;7.40;99.90;;;;;;4864803;29;20063;-70
2023/04/07 03:48:27;;;;;;;31.73;11.60;;;7.40;99.90;;;;;;4869301;29;20055;-70
2023/04/07 03:50:52;;;;;;;30.47;11.13;;;7.40;99.90;;;;;;4880715;29;20127;-70
2023/04/07 03:53:18;;;;;;;23.77;11.33;;;7.40;99.90;;;;;;4877210;29;20071;-70
2023/04/07 03:55:45;;;;;;;25.93;10.43;;;7.40;99.90;;;;;;4886423;29;20072;-70
2023/04/07 03:58:10;;;;;;;28.05;10.60;;;7.40;99.90;;;;;;4878570;29;20538;-70
2023/04/07 04:00:36;;;;;;;29.03;10.87;;;7.40;99.90;;;;;;4880383;29;20036;-70
2023/04/07 04:03:02;;;;;;;28.47;10.27;;;7.40;99.90;;;;;;4880713;29;20048;-70
2023/04/07 04:05:28;;;;;;;28.33;9.77;;;7.40;99.90;;;;;;4880356;29;20048;-70
2023/04/07 04:07:54;;;;;;;26.87;9.17;;;7.40;99.90;;;;;;4874970;29;20049;-70
2023/04/07 04:10:20;;;;;;;26.60;9.23;;;7.40;99.90;;;;;;4858098;29;20063;-70
2023/04/07 04:12:47;;;;;;;26.92;8.48;;;7.40;99.90;;;;;;4879725;29;20073;-70
2023/04/07 04:15:14;;;;;;;30.23;9.15;;;7.40;99.90;;;;;;4880326;29;20075;-70
2023/04/07 04:17:40;;;;;;;29.52;9.35;;;7.40;99.90;;;;;;4859574;29;20262;-72
2023/04/07 04:20:06;;;;;;;23.55;9.38;;;7.40;99.90;;;;;;4866235;29;20048;-72
2023/04/07 04:22:32;;;;;;;25.60;8.77;;;7.40;99.90;;;;;;4864048;29;20037;-73
2023/04/07 04:24:59;;;;;;;20.20;7.80;;;7.40;99.90;;;;;;4865155;29;20397;-73
2023/04/07 04:27:25;;;;;;;27.88;8.73;;;7.40;99.90;;;;;;4855429;29;20052;-72
2023/04/07 04:29:51;;;;;;;31.73;9.30;;;7.40;99.90;;;;;;4864822;29;20086;-72
2023/04/07 04:32:16;;;;;;;29.73;9.73;;;7.40;99.90;;;;;;4864072;29;20131;-72
2023/04/07 04:34:42;;;;;;;35.87;9.33;;;7.40;99.90;;;;;;4879794;29;20309;-72
2023/04/07 04:37:08;;;;;;;25.02;9.40;;;7.40;99.90;;;;;;4868619;29;20044;-72
2023/04/07 04:39:34;;;;;;;49.53;11.00;;;7.40;99.90;;;;;;4865059;29;20044;-72
2023/04/07 04:42:00;;;;;;;38.53;10.30;;;7.40;99.90;;;;;;4866073;29;20147;-72
2023/04/07 04:44:26;;;;;;;34.47;9.80;;;7.40;99.90;;;;;;4886064;29;20044;-72
2023/04/07 04:46:52;;;;;;;36.90;10.43;;;7.40;99.90;;;;;;4873653;29;20045;-72
2023/04/07 04:49:18;;;;;;;34.37;9.83;;;7.40;99.90;;;;;;4867912;29;20496;-72
2023/04/07 04:51:45;;;;;;;29.75;9.38;;;7.40;99.90;;;;;;4869736;29;20058;-72
2023/04/07 04:54:10;;;;;;;22.33;9.50;;;7.40;99.90;;;;;;4878126;29;20048;-72
2023/04/07 04:56:36;;;;;;;26.83;9.10;;;7.40;99.90;;;;;;4861971;29;20128;-72
2023/04/07 04:59:03;;;;;;;18.90;7.93;;;7.40;99.90;;;;;;4878532;29;20481;-72
2023/04/07 05:01:29;;;;;;;22.52;8.23;;;7.40;99.90;;;;;;4852168;29;20040;-72
2023/04/07 05:03:55;;;;;;;19.47;7.60;;;7.40;99.90;;;;;;4864018;29;20051;-72
2023/04/07 05:06:21;;;;;;;22.90;8.70;;;7.40;99.90;;;;;;4863698;29;20047;-72
2023/04/07 05:08:46;;;;;;;25.00;8.83;;;7.40;99.90;;;;;;4863821;29;20777;-72
2023/04/07 05:11:12;;;;;;;29.40;9.67;;;7.40;99.90;;;;;;4877519;29;20158;-72
2023/04/07 05:13:38;;;;;;;23.20;10.43;;;7.40;99.90;;;;;;4877779;29;20037;-73
2023/04/07 05:16:04;;;;;;;26.03;12.27;;;7.40;99.90;;;;;;4862034;29;20056;-73
2023/04/07 05:18:30;;;;;;;30.25;11.82;;;7.40;99.90;;;;;;4876660;29;20045;-72
2023/04/07 05:20:55;;;;;;;29.40;14.77;;;7.40;99.90;;;;;;4863610;29;20053;-72
2023/04/07 05:23:21;;;;;;;36.60;17.43;;;7.40;99.90;;;;;;4863245;29;20164;-72
2023/04/07 05:25:47;;;;;;;35.20;18.77;;;7.40;99.90;;;;;;4878826;29;20089;-72
2023/04/07 05:28:13;;;;;;;38.90;22.03;;;7.40;99.90;;;;;;4876434;29;20040;-72
2023/04/07 05:30:38;;;;;;;42.27;22.33;;;7.40;99.90;;;;;;4861974;29;20056;-72
2023/04/07 05:33:04;;;;;;;37.53;22.10;;;7.40;99.90;;;;;;4860829;29;20336;-72
2023/04/07 05:35:30;;;;;;;39.15;23.08;;;7.40;99.90;;;;;;4877674;29;20041;-74
2023/04/07 05:37:56;;;;;;;45.20;23.40;;;7.30;99.90;;;;;;4862065;29;20099;-73
2023/04/07 05:40:21;;;;;;;37.30;23.60;;;7.30;99.90;;;;;;4875389;29;20733;-73
2023/04/07 05:42:47;;;;;;;37.97;23.53;;;7.30;99.90;;;;;;4860667;29;20045;-73
2023/04/07 05:45:13;;;;;;;43.20;24.97;;;7.30;99.90;;;;;;4877934;29;20143;-73
2023/04/07 05:47:38;;;;;;;39.20;23.17;;;7.20;99.90;;;;;;4861612;29;20049;-73
2023/04/07 05:50:05;;;;;;;42.60;24.70;;;7.20;99.90;;;;;;4878252;29;20052;-73
2023/04/07 05:52:30;;;;;;;38.05;23.85;;;7.20;99.90;;;;;;4860345;29;20048;-73
2023/04/07 05:54:56;;;;;;;39.57;23.23;;;7.20;99.90;;;;;;4877630;29;20048;-72
2023/04/07 05:57:22;;;;;;;41.03;23.63;;;7.20;99.90;;;;;;4877587;29;20409;-72
2023/04/07 05:59:47;;;;;;;42.87;24.23;;;7.20;99.90;;;;;;4877425;29;20048;-72
2023/04/07 06:02:13;;;;;;;42.70;25.33;;;7.20;99.90;;;;;;4875815;29;20069;-72
2023/04/07 06:04:39;;;;;;;44.23;24.77;;;7.20;99.90;;;;;;4874708;29;20397;-73
2023/04/07 06:07:04;;;;;;;43.57;24.57;;;7.20;99.90;;;;;;4876248;29;20096;-73
2023/04/07 06:09:30;;;;;;;46.83;24.80;;;7.20;99.90;;;;;;4859741;29;20532;-73
2023/04/07 06:11:56;;;;;;;44.27;24.10;;;7.20;99.90;;;;;;4877255;29;20048;-73
2023/04/07 06:14:22;;;;;;;46.17;24.87;;;7.20;99.90;;;;;;4876453;29;20557;-73
2023/04/07 06:16:47;;;;;;;48.67;24.80;;;7.20;99.90;;;;;;4871385;29;20545;-73
2023/04/07 06:19:13;;;;;;;44.50;25.20;;;7.20;99.90;;;;;;4867477;29;20041;-73
2023/04/07 06:21:39;;;;;;;41.63;23.83;;;7.20;99.90;;;;;;4867175;29;20041;-73
2023/04/07 06:24:05;;;;;;;45.80;23.97;;;7.20;99.90;;;;;;4869337;29;20075;-73
2023/04/07 06:26:32;;;;;;;40.10;21.98;;;7.20;99.90;;;;;;4862538;29;20458;-73
2023/04/07 06:28:58;;;;;;;38.03;22.02;;;7.20;99.90;;;;;;4851461;29;20048;-73
2023/04/07 06:31:24;;;;;;;34.17;21.08;;;7.20;99.90;;;;;;4876875;29;20048;-73
2023/04/07 06:33:50;;;;;;;34.38;20.17;;;7.20;99.90;;;;;;4859392;29;20044;-73
2023/04/07 06:36:16;;;;;;;32.80;20.20;;;7.20;99.90;;;;;;4882618;29;20107;-73
2023/04/07 06:38:42;;;;;;;32.17;19.63;;;7.30;99.90;;;;;;4876906;29;20040;-73
2023/04/07 06:41:11;;;;;;;29.35;19.38;;;7.30;99.90;;;;;;4877255;29;20036;-73
2023/04/07 06:43:37;;;;;;;30.27;19.00;;;7.30;99.90;;;;;;4861599;29;20040;-73
2023/04/07 06:46:03;;;;;;;29.33;18.30;;;7.30;99.90;;;;;;4881250;29;20044;-73
2023/04/07 06:48:29;;;;;;;27.53;17.83;;;7.30;99.90;;;;;;4861065;29;20127;-73
2023/04/07 06:50:54;;;;;;;27.63;17.03;;;7.30;99.90;;;;;;4874391;29;20724;-73
2023/04/07 06:53:20;;;;;;;25.80;16.20;;;7.30;99.90;;;;;;4874998;29;20044;-73
2023/04/07 06:55:46;;;;;;;26.40;16.70;;;7.30;99.90;;;;;;4860717;29;20055;-73
2023/04/07 06:58:11;;;;;;;26.60;16.00;;;7.30;99.90;;;;;;4876446;29;20124;-73
2023/04/07 07:00:37;;;;;;;23.33;15.70;;;7.30;99.90;;;;;;4895199;29;20032;-74
2023/04/07 07:03:03;;;;;;;24.43;15.67;;;7.30;99.90;;;;;;4882637;29;20172;-74
2023/04/07 07:05:29;;;;;;;22.90;15.30;;;7.40;99.90;;;;;;4865765;29;20048;-73
2023/04/07 07:07:55;;;;;;;24.60;16.13;;;7.40;99.90;;;;;;4876792;29;20526;-74
2023/04/07 07:10:21;;;;;;;24.37;15.40;;;7.40;99.90;;;;;;4858197;29;20457;-74
2023/04/07 07:12:50;;;;;;;21.08;14.45;;;7.50;99.90;;;;;;4881805;29;20048;-74
2023/04/07 07:15:17;;;;;;;22.13;15.68;;;7.50;99.90;;;;;;4866202;29;20135;-74
2023/04/07 07:17:42;;;;;;;22.15;15.38;;;7.50;99.90;;;;;;4878490;29;20073;-73
2023/04/07 07:20:09;;;;;;;22.23;15.20;;;7.50;99.90;;;;;;4866302;29;20036;-73
2023/04/07 07:22:35;;;;;;;23.55;16.35;;;7.50;99.90;;;;;;4890155;29;20498;-74
2023/04/07 07:25:00;;;;;;;23.27;15.77;;;7.60;99.90;;;;;;4866693;29;20063;-74
2023/04/07 07:27:26;;;;;;;22.30;15.20;;;7.60;99.90;;;;;;4859975;29;20045;-74
2023/04/07 07:29:52;;;;;;;24.00;15.63;;;7.60;99.90;;;;;;4873902;29;20055;-73
2023/04/07 07:32:17;;;;;;;21.77;15.77;;;7.60;99.90;;;;;;4882067;29;20044;-74
2023/04/07 07:34:43;;;;;;;22.80;16.00;;;7.70;99.90;;;;;;4864337;29;20067;-73
2023/04/07 07:37:09;;;;;;;23.00;15.90;;;7.70;99.90;;;;;;4879603;29;20059;-74
2023/04/07 07:39:35;;;;;;;22.05;16.38;;;7.70;99.90;;;;;;4874177;29;20044;-74
2023/04/07 07:42:01;;;;;;;22.17;15.20;;;7.80;99.90;;;;;;4881652;29;20099;-73
2023/04/07 07:44:27;;;;;;;21.93;15.73;;;7.80;99.90;;;;;;4883665;29;20088;-73
2023/04/07 07:46:54;;;;;;;21.50;15.20;;;7.80;99.90;;;;;;4881366;29;20135;-74
2023/04/07 07:49:20;;;;;;;21.25;15.75;;;7.80;99.90;;;;;;4880260;29;20052;-74
2023/04/07 07:51:46;;;;;;;23.27;16.30;;;7.80;99.90;;;;;;4881453;29;20147;-74
2023/04/07 07:54:11;;;;;;;23.27;16.33;;;7.80;99.90;;;;;;4865001;29;20494;-74
2023/04/07 07:56:37;;;;;;;22.10;15.53;;;7.80;99.90;;;;;;4862799;29;20060;-74
2023/04/07 07:59:07;;;;;;;21.80;16.27;;;7.80;99.90;;;;;;4858226;29;20041;-73
2023/04/07 08:01:32;;;;;;;26.35;18.33;;;7.90;99.90;;;;;;4878914;29;20044;-74
2023/04/07 08:03:58;;;;;;;22.77;16.10;;;7.90;99.90;;;;;;4869730;29;20051;-74
2023/04/07 08:06:24;;;;;;;20.17;15.80;;;7.90;99.90;;;;;;4859904;29;20128;-74
2023/04/07 08:08:50;;;;;;;20.60;15.83;;;7.90;99.90;;;;;;4877913;29;20056;-74
2023/04/07 08:11:16;;;;;;;20.73;15.50;;;8.00;99.90;;;;;;4877565;29;20032;-73
2023/04/07 08:13:44;;;;;;;21.70;15.93;;;8.00;99.90;;;;;;4875221;29;20320;-74
2023/04/07 08:16:10;;;;;;;20.92;15.63;;;8.00;99.90;;;;;;4858062;29;20053;-75
2023/04/07 08:18:36;;;;;;;21.40;16.50;;;8.10;99.90;;;;;;4858791;29;20037;-74
2023/04/07 08:21:04;;;;;;;22.43;15.77;;;8.10;99.90;;;;;;4877661;29;20573;-74
2023/04/07 08:23:30;;;;;;;20.48;14.95;;;8.10;99.90;;;;;;4879588;29;20095;-74
2023/04/07 08:25:56;;;;;;;22.13;16.77;;;8.10;99.90;;;;;;4880735;29;20103;-74
2023/04/07 08:28:23;;;;;;;20.37;15.73;;;8.10;99.90;;;;;;4857592;29;20040;-75
2023/04/07 08:30:50;;;;;;;18.23;14.57;;;8.10;99.90;;;;;;4879639;29;20291;-74
2023/04/07 08:33:15;;;;;;;21.17;15.23;;;8.10;99.90;;;;;;4865450;29;20136;-76
2023/04/07 08:35:41;;;;;;;19.77;15.53;;;8.10;99.90;;;;;;4850040;29;20104;-74
2023/04/07 08:38:08;;;;;;;21.37;15.83;;;8.10;99.90;;;;;;4874391;29;20046;-75
2023/04/07 08:40:34;;;;;;;18.33;13.75;;;8.10;99.90;;;;;;4859526;29;20043;-74
2023/04/07 08:43:07;;;;;;;18.20;14.52;;;8.10;99.90;;;;;;4854863;29;20556;-75
2023/04/07 08:45:35;;;;;;;19.27;14.30;;;8.10;99.90;;;;;;4872070;29;20080;-75
2023/04/07 08:48:09;;;;;;;17.08;13.23;;;8.10;99.90;;;;;;4871699;29;20052;-74
2023/04/07 08:50:36;;;;;;;14.85;11.90;;;8.10;99.90;;;;;;4855157;29;20086;-75
2023/04/07 08:53:07;;;;;;;15.13;11.40;;;8.10;99.90;;;;;;4870022;29;20037;-74
2023/04/07 08:55:35;;;;;;;13.70;11.23;;;8.10;99.90;;;;;;4869763;29;20072;-74
2023/04/07 08:58:02;;;;;;;15.18;11.50;;;8.20;99.90;;;;;;4870029;29;20037;-73
2023/04/07 09:00:28;;;;;;;15.77;12.52;;;8.20;99.90;;;;;;4875672;29;20422;-74
2023/04/07 09:02:54;;;;;;;15.63;13.10;;;8.30;99.90;;;;;;4876998;29;20075;-73
2023/04/07 09:05:21;;;;;;;16.05;12.45;;;8.30;99.90;;;;;;4856083;29;20123;-74
2023/04/07 09:07:46;;;;;;;16.25;12.75;;;8.40;99.90;;;;;;4873474;29;20080;-74
2023/04/07 09:10:12;;;;;;;14.93;12.37;;;8.40;99.90;;;;;;4869825;29;20068;-74
2023/04/07 09:12:38;;;;;;;14.60;11.63;;;8.50;99.90;;;;;;4874873;29;20036;-74
2023/04/07 09:15:07;;;;;;;13.33;11.20;;;8.60;99.90;;;;;;4856145;29;20055;-74
2023/04/07 09:17:33;;;;;;;12.90;11.40;;;8.70;99.90;;;;;;4872748;29;20305;-74
2023/04/07 09:20:00;;;;;;;15.23;11.90;;;8.70;99.90;;;;;;4872700;29;20354;-74
2023/04/07 09:22:44;;;;;;;13.20;11.32;;;8.80;99.90;;;;;;4875896;29;20047;-74
2023/04/07 09:25:14;;;;;;;15.40;11.57;;;8.80;99.90;;;;;;4873028;29;20049;-74
2023/04/07 09:27:52;;;;;;;11.73;10.20;;;8.90;99.90;;;;;;4859898;29;20128;-75
2023/04/07 09:30:18;;;;;;;13.65;10.40;;;9.00;99.90;;;;;;4873900;29;20055;-74
2023/04/07 09:32:44;;;;;;;12.50;11.03;;;9.10;99.90;;;;;;4882719;29;20044;-75
2023/04/07 09:35:09;;;;;;;14.17;12.50;;;9.30;99.90;;;;;;4881028;29;20088;-74
2023/04/07 09:37:36;;;;;;;13.17;11.50;;;9.50;99.90;;;;;;4862669;29;20383;-74
2023/04/07 09:40:02;;;;;;;13.65;11.65;;;9.70;99.90;;;;;;4864870;29;20091;-74
2023/04/07 09:42:33;;;;;;;13.88;11.75;;;9.90;99.90;;;;;;4862216;29;20036;-75
2023/04/07 09:45:00;;;;;;;15.45;12.70;;;10.00;99.90;;;;;;4876423;29;20140;-74
2023/04/07 09:47:31;;;;;;;13.37;11.60;;;10.10;99.90;;;;;;4878992;29;20060;-74
2023/04/07 09:49:58;;;;;;;14.30;11.63;;;10.10;99.90;;;;;;4865021;29;20281;-75
2023/04/07 09:52:52;;;;;;;15.27;11.80;;;10.10;99.90;;;;;;4857863;29;20056;-74
2023/04/07 09:55:22;;;;;;;16.37;12.20;;;10.10;99.90;;;;;;4867445;29;20305;-74
2023/04/07 09:57:52;;;;;;;14.83;12.50;;;10.00;99.90;;;;;;4874225;29;20319;-75
2023/04/07 10:00:18;;;;;;;14.70;12.52;;;9.90;99.90;;;;;;4869954;29;20272;-75
2023/04/07 10:02:44;;;;;;;14.83;12.63;;;9.90;99.90;;;;;;4852978;29;20049;-74
2023/04/07 10:05:10;;;;;;;14.73;13.13;;;9.90;99.90;;;;;;4855528;29;20308;-74
2023/04/07 10:07:36;;;;;;;17.13;14.27;;;9.90;99.90;;;;;;4858464;29;20285;-74
2023/04/07 10:10:03;;;;;;;17.17;14.83;;;10.00;99.90;;;;;;4860902;29;20304;-74
2023/04/07 10:12:33;;;;;;;15.80;13.93;;;10.20;99.90;;;;;;4858574;29;20250;-74
2023/04/07 10:15:00;;;;;;;17.53;14.03;;;10.30;99.90;;;;;;4875865;29;20309;-74
2023/04/07 10:17:28;;;;;;;16.57;14.47;;;10.40;99.90;;;;;;4872960;29;20445;-74
2023/04/07 10:19:59;;;;;;;16.97;13.97;;;10.50;99.90;;;;;;4880418;29;20303;-74
2023/04/07 10:22:26;;;;;;;15.63;12.83;;;10.70;99.90;;;;;;4873970;29;20796;-74
2023/04/07 10:24:57;;;;;;;15.50;12.73;;;10.90;99.90;;;;;;4860384;29;20320;-74
2023/04/07 10:27:37;;;;;;;15.67;13.03;;;11.10;99.90;;;;;;4864543;29;20298;-73
2023/04/07 10:30:10;;;;;;;14.00;11.77;;;11.20;99.90;;;;;;4886794;29;20292;-73
2023/04/07 10:32:47;;;;;;;16.00;13.07;;;11.30;99.90;;;;;;4857107;29;20334;-73
2023/04/07 10:35:13;;;;;;;13.90;12.37;;;11.20;99.90;;;;;;4873922;29;20309;-73
2023/04/07 10:37:39;;;;;;;11.93;10.70;;;11.20;99.90;;;;;;4856721;29;20303;-73
2023/04/07 10:40:25;;;;;;;12.57;10.50;;;11.10;99.90;;;;;;4872017;29;20059;-74
2023/04/07 10:42:51;;;;;;;11.90;10.63;;;10.90;99.90;;;;;;4854253;29;20089;-74
2023/04/07 10:45:51;;;;;;;11.10;9.30;;;10.80;99.90;;;;;;4871700;29;20284;-74
2023/04/07 10:48:18;;;;;;;11.47;9.30;;;10.70;99.90;;;;;;4857052;29;20049;-73
2023/04/07 10:51:09;;;;;;;11.67;9.77;;;10.60;99.90;;;;;;4860384;29;20926;-73
2023/04/07 10:53:35;;;;;;;10.83;9.63;;;10.60;99.90;;;;;;4871344;29;20333;-74
2023/04/07 10:56:01;;;;;;;11.27;9.80;;;10.50;99.90;;;;;;4872269;29;20301;-74
2023/04/07 10:58:31;;;;;;;9.87;8.87;;;10.40;99.90;;;;;;4858544;29;20293;-74
2023/04/07 11:01:06;;;;;;;10.77;9.03;;;10.30;99.90;;;;;;4853374;29;20041;-74
2023/04/07 11:03:40;;;;;;;13.23;8.60;;;10.30;99.90;;;;;;4873972;29;20349;-73
2023/04/07 11:06:07;;;;;;;10.68;9.30;;;10.30;99.90;;;;;;4875550;29;20131;-73
2023/04/07 11:08:36;;;;;;;10.93;9.60;;;10.30;99.90;;;;;;4859876;29;20099;-74
2023/04/07 11:11:07;;;;;;;12.87;9.90;;;10.40;99.90;;;;;;4858593;29;20288;-74
2023/04/07 11:13:47;;;;;;;11.50;10.17;;;10.40;99.90;;;;;;4856258;29;20298;-73
2023/04/07 11:16:15;;;;;;;12.80;9.93;;;10.40;99.90;;;;;;4878436;29;20308;-73
2023/04/07 11:18:42;;;;;;;12.07;10.27;;;10.50;99.90;;;;;;4874858;29;20360;-74
2023/04/07 11:21:08;;;;;;;12.40;11.13;;;10.50;99.90;;;;;;4851784;29;20297;-73
2023/04/07 11:23:44;;;;;;;13.30;11.30;;;10.50;99.90;;;;;;4874855;29;20356;-73
2023/04/07 11:26:12;;;;;;;12.17;10.87;;;10.50;99.90;;;;;;4867127;29;20312;-73
2023/04/07 11:28:52;;;;;;;12.27;10.97;;;10.50;99.90;;;;;;4864929;29;20355;-73
2023/04/07 11:31:25;;;;;;;11.70;10.50;;;10.50;99.90;;;;;;4868578;29;20285;-73
2023/04/07 11:34:02;;;;;;;12.97;10.87;;;10.50;99.90;;;;;;4868324;29;20321;-73
2023/04/07 11:36:29;;;;;;;12.17;10.87;;;10.70;99.90;;;;;;4866472;29;20324;-73
2023/04/07 11:38:58;;;;;;;10.43;9.33;;;10.90;99.90;;;;;;4857233;29;20285;-73
2023/04/07 11:41:26;;;;;;;11.17;9.53;;;11.10;99.90;;;;;;4855786;29;20285;-73
2023/04/07 11:44:10;;;;;;;10.27;9.20;;;11.20;99.90;;;;;;4871089;29;20778;-73
2023/04/07 11:46:51;;;;;;;13.53;10.17;;;11.40;99.90;;;;;;4854989;29;20293;-73
2023/04/07 11:49:17;;;;;;;11.87;10.33;;;11.60;99.90;;;;;;4871772;29;20289;-73
2023/04/07 11:51:43;;;;;;;12.13;10.43;;;11.80;99.90;;;;;;4879119;29;20361;-73
2023/04/07 11:54:09;;;;;;;11.20;9.70;;;11.90;99.90;;;;;;4859953;29;20036;-73
2023/04/07 11:56:43;;;;;;;11.70;10.37;;;11.90;99.90;;;;;;4877832;29;20293;-74
2023/04/07 11:59:21;;;;;;;12.10;10.80;;;12.00;99.90;;;;;;4862255;29;20328;-74
2023/04/07 12:01:49;;;;;;;10.87;9.77;;;12.10;99.90;;;;;;4865055;29;20364;-73
2023/04/07 12:04:15;;;;;;;11.30;9.73;;;12.20;99.90;;;;;;4864601;29;20597;-74
2023/04/07 12:06:41;;;;;;;9.83;8.83;;;12.20;99.90;;;;;;4879089;29;20285;-74
2023/04/07 12:09:31;;;;;;;10.63;9.10;;;12.10;99.90;;;;;;4879105;29;20297;-74
2023/04/07 12:11:57;;;;;;;10.20;7.80;;;12.10;99.90;;;;;;4876392;29;20380;-73
2023/04/07 12:14:25;;;;;;;10.40;7.13;;;12.10;99.90;;;;;;4879252;29;20305;-73
2023/04/07 12:16:51;;;;;;;7.40;5.93;;;12.10;99.90;;;;;;4879909;29;21011;-73
2023/04/07 12:19:17;;;;;;;8.87;6.10;;;12.00;99.90;;;;;;4879440;29;20288;-73
2023/04/07 12:21:43;;;;;;;6.50;5.43;;;11.90;99.90;;;;;;4864744;29;20773;-73
2023/04/07 12:24:09;;;;;;;6.20;4.83;;;11.80;99.90;;;;;;4875555;29;20292;-73
2023/04/07 12:26:34;;;;;;;5.63;5.03;;;11.80;99.90;;;;;;4878409;29;20612;-73
2023/04/07 12:29:04;;;;;;;5.27;4.77;;;11.70;99.90;;;;;;4863298;29;20123;-73
2023/04/07 12:31:31;;;;;;;5.73;4.83;;;11.60;99.90;;;;;;4876125;29;20045;-74
2023/04/07 12:33:57;;;;;;;5.73;5.10;;;11.60;99.90;;;;;;4878550;29;20663;-74
2023/04/07 12:36:25;;;;;;;7.60;5.10;;;11.60;99.90;;;;;;4862973;29;20311;-73
2023/04/07 12:38:50;;;;;;;5.33;4.53;;;11.50;99.90;;;;;;4859042;29;20838;-73
2023/04/07 12:41:16;;;;;;;5.73;4.97;;;11.50;99.90;;;;;;4875870;29;20289;-74